createdAt,value
2022-11-16T00:02:35.347Z,16.46
2022-11-16T00:31:17.641Z,16.45
2022-11-16T01:00:06.720Z,16.43
2022-11-16T01:28:56.186Z,16.43
2022-11-16T01:57:45.067Z,16.42
2022-11-16T02:26:32.998Z,16.41
2022-11-16T02:55:22.381Z,16.41
2022-11-16T03:24:09.601Z,16.39
2022-11-16T03:52:59.009Z,16.38
2022-11-16T04:21:35.818Z,16.4
2022-11-16T04:50:22.640Z,16.39
2022-11-16T05:19:09.665Z,16.39
2022-11-16T05:47:59.137Z,16.38
2022-11-16T06:16:47.606Z,16.37
2022-11-16T06:45:14.991Z,16.38
2022-11-16T07:13:50.917Z,16.4
2022-11-16T07:42:31.515Z,16.21
2022-11-16T08:11:05.158Z,16.33
2022-11-16T08:39:44.874Z,16.37
2022-11-16T09:08:21.055Z,16.47
2022-11-16T09:37:02.980Z,16.53
2022-11-16T10:05:40.446Z,16.59
2022-11-16T10:34:15.518Z,16.64
2022-11-16T12:28:51.655Z,16.75
2022-11-16T13:25:51.672Z,16.81
2022-11-16T13:54:45.564Z,16.84
2022-11-16T14:22:53.286Z,16.85
2022-11-16T14:51:29.960Z,16.83
2022-11-16T15:20:06.916Z,16.81
2022-11-16T15:48:38.870Z,16.8
2022-11-16T16:17:12.098Z,16.78
2022-11-16T16:45:45.375Z,16.76
2022-11-16T17:14:13.764Z,16.75
2022-11-16T17:42:46.346Z,16.79
2022-11-16T18:11:06.714Z,16.8
2022-11-16T18:39:44.241Z,16.77
2022-11-16T19:08:25.450Z,16.75
2022-11-16T19:37:03.551Z,16.72
2022-11-16T20:05:38.100Z,16.7
2022-11-16T20:34:22.377Z,16.69
2022-11-16T21:02:51.769Z,16.67
2022-11-16T21:31:24.620Z,16.67
2022-11-16T22:00:09.027Z,16.65
2022-11-16T22:28:50.367Z,16.64
2022-11-16T22:57:31.494Z,16.62
2022-11-16T23:26:19.296Z,16.6
2022-11-16T23:55:05.564Z,16.6
